Terminal Aerodrome Forecast
Issued by NWS

Home | Current Version | Previous Version | Text Only | Print | Product List | Glossary On
Versions: 1 2 3 4 5 6 7 8 9 10 11 12 13 14 15 16 17 18
000
FTUS42 KMLB 010021 AAA
TAFSUA
TAF AMD
KSUA 010021Z 0100/0124 24004KT P6SM BKN150 OVC250
     FM010200 16003KT P6SM SCT020 BKN250
     FM011400 14006KT P6SM FEW015 SCT150 BKN250
     FM011800 12010KT P6SM VCSH SCT025 SCT050=

USA.gov is the U.S. government's official web portal to all federal, state and local government web resources and services.